sensor_id;sensor_type;location;lat;lon;timestamp;temperature;humidity
22139;DHT22;25815;52.582;13.408;2024-02-26T00:00:27;3.10;99.90
22139;DHT22;25815;52.582;13.408;2024-02-26T00:02:55;3.00;99.90
22139;DHT22;25815;52.582;13.408;2024-02-26T00:05:21;2.90;99.90
22139;DHT22;25815;52.582;13.408;2024-02-26T00:07:46;2.70;99.90
22139;DHT22;25815;52.582;13.408;2024-02-26T00:10:13;2.80;99.90
22139;DHT22;25815;52.582;13.408;2024-02-26T00:12:39;2.90;99.90
22139;DHT22;25815;52.582;13.408;2024-02-26T00:15:08;2.90;99.90
22139;DHT22;25815;52.582;13.408;2024-02-26T00:17:34;2.90;99.90
22139;DHT22;25815;52.582;13.408;2024-02-26T00:20:00;2.80;99.90
22139;DHT22;25815;52.582;13.408;2024-02-26T00:22:26;2.80;99.90
22139;DHT22;25815;52.582;13.408;2024-02-26T00:24:52;2.80;99.90
22139;DHT22;25815;52.582;13.408;2024-02-26T00:27:17;2.80;99.90
22139;DHT22;25815;52.582;13.408;2024-02-26T00:29:43;2.90;99.90
22139;DHT22;25815;52.582;13.408;2024-02-26T00:32:09;2.90;99.90
22139;DHT22;25815;52.582;13.408;2024-02-26T00:34:34;2.80;99.90
22139;DHT22;25815;52.582;13.408;2024-02-26T00:37:01;2.70;99.90
22139;DHT22;25815;52.582;13.408;2024-02-26T00:39:26;2.70;99.90
22139;DHT22;25815;52.582;13.408;2024-02-26T00:41:52;2.70;99.90
22139;DHT22;25815;52.582;13.408;2024-02-26T00:44:17;2.60;99.90
22139;DHT22;25815;52.582;13.408;2024-02-26T00:46:43;2.60;99.90
22139;DHT22;25815;52.582;13.408;2024-02-26T00:49:08;2.60;99.90
22139;DHT22;25815;52.582;13.408;2024-02-26T00:51:34;2.70;99.90
22139;DHT22;25815;52.582;13.408;2024-02-26T00:53:59;2.60;99.90
22139;DHT22;25815;52.582;13.408;2024-02-26T00:56:25;2.60;99.90
22139;DHT22;25815;52.582;13.408;2024-02-26T00:58:50;2.50;99.90
22139;DHT22;25815;52.582;13.408;2024-02-26T01:01:17;2.50;99.90
22139;DHT22;25815;52.582;13.408;2024-02-26T01:03:42;2.50;99.90
22139;DHT22;25815;52.582;13.408;2024-02-26T01:06:08;2.50;99.90
22139;DHT22;25815;52.582;13.408;2024-02-26T01:08:33;2.50;99.90
22139;DHT22;25815;52.582;13.408;2024-02-26T01:11:01;2.70;99.90
22139;DHT22;25815;52.582;13.408;2024-02-26T01:13:26;2.60;99.90
22139;DHT22;25815;52.582;13.408;2024-02-26T01:15:52;2.60;99.90
22139;DHT22;25815;52.582;13.408;2024-02-26T01:18:18;2.60;99.90
22139;DHT22;25815;52.582;13.408;2024-02-26T01:20:43;2.60;99.90
22139;DHT22;25815;52.582;13.408;2024-02-26T01:23:09;2.60;99.90
22139;DHT22;25815;52.582;13.408;2024-02-26T01:25:34;2.60;99.90
22139;DHT22;25815;52.582;13.408;2024-02-26T01:28:00;2.50;99.90
22139;DHT22;25815;52.582;13.408;2024-02-26T01:30:25;2.50;99.90
22139;DHT22;25815;52.582;13.408;2024-02-26T01:32:51;2.50;99.90
22139;DHT22;25815;52.582;13.408;2024-02-26T01:35:16;2.30;99.90
22139;DHT22;25815;52.582;13.408;2024-02-26T01:37:42;2.30;99.90
22139;DHT22;25815;52.582;13.408;2024-02-26T01:40:08;2.30;99.90
22139;DHT22;25815;52.582;13.408;2024-02-26T01:42:35;2.10;99.90
22139;DHT22;25815;52.582;13.408;2024-02-26T01:45:00;2.10;99.90
22139;DHT22;25815;52.582;13.408;2024-02-26T01:47:26;2.10;99.90
22139;DHT22;25815;52.582;13.408;2024-02-26T01:49:53;2.10;99.90
22139;DHT22;25815;52.582;13.408;2024-02-26T01:52:19;2.20;99.90
22139;DHT22;25815;52.582;13.408;2024-02-26T01:54:46;2.30;99.90
22139;DHT22;25815;52.582;13.408;2024-02-26T01:57:12;2.20;99.90
22139;DHT22;25815;52.582;13.408;2024-02-26T01:59:39;2.30;99.90
22139;DHT22;25815;52.582;13.408;2024-02-26T02:02:07;2.40;99.90
22139;DHT22;25815;52.582;13.408;2024-02-26T02:04:35;2.30;99.90
22139;DHT22;25815;52.582;13.408;2024-02-26T02:07:01;2.30;99.90
22139;DHT22;25815;52.582;13.408;2024-02-26T02:09:28;2.10;99.90
22139;DHT22;25815;52.582;13.408;2024-02-26T02:11:54;2.10;99.90
22139;DHT22;25815;52.582;13.408;2024-02-26T02:14:19;2.00;99.90
22139;DHT22;25815;52.582;13.408;2024-02-26T02:16:46;1.90;99.90
22139;DHT22;25815;52.582;13.408;2024-02-26T02:19:12;1.80;99.90
22139;DHT22;25815;52.582;13.408;2024-02-26T02:21:38;1.80;99.90
22139;DHT22;25815;52.582;13.408;2024-02-26T02:24:04;1.80;99.90
22139;DHT22;25815;52.582;13.408;2024-02-26T02:26:29;1.80;99.90
22139;DHT22;25815;52.582;13.408;2024-02-26T02:28:55;1.80;99.90
22139;DHT22;25815;52.582;13.408;2024-02-26T02:31:21;1.80;99.90
22139;DHT22;25815;52.582;13.408;2024-02-26T02:33:46;1.80;99.90
22139;DHT22;25815;52.582;13.408;2024-02-26T02:36:12;1.90;99.90
22139;DHT22;25815;52.582;13.408;2024-02-26T02:38:38;1.90;99.90
22139;DHT22;25815;52.582;13.408;2024-02-26T02:41:04;1.90;99.90
22139;DHT22;25815;52.582;13.408;2024-02-26T02:43:29;1.90;99.90
22139;DHT22;25815;52.582;13.408;2024-02-26T02:45:55;1.90;99.90
22139;DHT22;25815;52.582;13.408;2024-02-26T02:48:20;1.80;99.90
22139;DHT22;25815;52.582;13.408;2024-02-26T02:50:46;1.80;99.90
22139;DHT22;25815;52.582;13.408;2024-02-26T02:53:11;1.80;99.90
22139;DHT22;25815;52.582;13.408;2024-02-26T02:55:37;1.90;99.90
22139;DHT22;25815;52.582;13.408;2024-02-26T02:58:02;1.90;99.90
22139;DHT22;25815;52.582;13.408;2024-02-26T03:00:28;2.00;99.90
22139;DHT22;25815;52.582;13.408;2024-02-26T03:02:53;2.00;99.90
22139;DHT22;25815;52.582;13.408;2024-02-26T03:05:19;2.00;99.90
22139;DHT22;25815;52.582;13.408;2024-02-26T03:07:45;2.00;99.90
22139;DHT22;25815;52.582;13.408;2024-02-26T03:10:10;2.00;99.90
22139;DHT22;25815;52.582;13.408;2024-02-26T03:12:36;1.80;99.90
22139;DHT22;25815;52.582;13.408;2024-02-26T03:15:02;1.70;99.90
22139;DHT22;25815;52.582;13.408;2024-02-26T03:17:31;1.60;99.90
22139;DHT22;25815;52.582;13.408;2024-02-26T03:19:57;1.50;99.90
22139;DHT22;25815;52.582;13.408;2024-02-26T03:22:22;1.40;99.90
22139;DHT22;25815;52.582;13.408;2024-02-26T03:24:48;1.40;99.90
22139;DHT22;25815;52.582;13.408;2024-02-26T03:27:13;1.50;99.90
22139;DHT22;25815;52.582;13.408;2024-02-26T03:29:40;1.50;99.90
22139;DHT22;25815;52.582;13.408;2024-02-26T03:32:06;1.60;99.90
22139;DHT22;25815;52.582;13.408;2024-02-26T03:34:34;1.70;99.90
22139;DHT22;25815;52.582;13.408;2024-02-26T03:37:00;1.70;99.90
22139;DHT22;25815;52.582;13.408;2024-02-26T03:39:26;1.80;99.90
22139;DHT22;25815;52.582;13.408;2024-02-26T03:41:52;1.90;99.90
22139;DHT22;25815;52.582;13.408;2024-02-26T03:44:17;1.80;99.90
22139;DHT22;25815;52.582;13.408;2024-02-26T03:46:44;1.90;99.90
22139;DHT22;25815;52.582;13.408;2024-02-26T03:49:09;1.90;99.90
22139;DHT22;25815;52.582;13.408;2024-02-26T03:51:35;1.80;99.90
22139;DHT22;25815;52.582;13.408;2024-02-26T03:54:01;1.80;99.90
22139;DHT22;25815;52.582;13.408;2024-02-26T03:56:27;1.80;99.90
22139;DHT22;25815;52.582;13.408;2024-02-26T03:58:53;1.80;99.90
22139;DHT22;25815;52.582;13.408;2024-02-26T04:01:18;1.80;99.90
22139;DHT22;25815;52.582;13.408;2024-02-26T04:03:44;1.80;99.90
22139;DHT22;25815;52.582;13.408;2024-02-26T04:06:10;1.80;99.90
22139;DHT22;25815;52.582;13.408;2024-02-26T04:08:37;1.80;99.90
22139;DHT22;25815;52.582;13.408;2024-02-26T04:11:03;1.90;99.90
22139;DHT22;25815;52.582;13.408;2024-02-26T04:13:32;1.90;99.90
22139;DHT22;25815;52.582;13.408;2024-02-26T04:15:58;1.90;99.90
22139;DHT22;25815;52.582;13.408;2024-02-26T04:18:26;1.90;99.90
22139;DHT22;25815;52.582;13.408;2024-02-26T04:20:52;1.90;99.90
22139;DHT22;25815;52.582;13.408;2024-02-26T04:23:18;1.90;99.90
22139;DHT22;25815;52.582;13.408;2024-02-26T04:25:43;1.80;99.90
22139;DHT22;25815;52.582;13.408;2024-02-26T04:28:09;1.80;99.90
22139;DHT22;25815;52.582;13.408;2024-02-26T04:30:34;1.80;99.90
22139;DHT22;25815;52.582;13.408;2024-02-26T04:33:00;1.80;99.90
22139;DHT22;25815;52.582;13.408;2024-02-26T04:35:25;1.70;99.90
22139;DHT22;25815;52.582;13.408;2024-02-26T04:37:51;1.60;99.90
22139;DHT22;25815;52.582;13.408;2024-02-26T04:40:16;1.70;99.90
22139;DHT22;25815;52.582;13.408;2024-02-26T04:42:42;1.60;99.90
22139;DHT22;25815;52.582;13.408;2024-02-26T04:45:08;1.60;99.90
22139;DHT22;25815;52.582;13.408;2024-02-26T04:47:34;1.70;99.90
22139;DHT22;25815;52.582;13.408;2024-02-26T04:49:59;1.70;99.90
22139;DHT22;25815;52.582;13.408;2024-02-26T04:52:25;1.60;99.90
22139;DHT22;25815;52.582;13.408;2024-02-26T04:54:51;1.50;99.90
22139;DHT22;25815;52.582;13.408;2024-02-26T04:57:16;1.40;99.90
22139;DHT22;25815;52.582;13.408;2024-02-26T04:59:44;1.40;99.90
22139;DHT22;25815;52.582;13.408;2024-02-26T05:02:11;1.40;99.90
22139;DHT22;25815;52.582;13.408;2024-02-26T05:04:37;1.40;99.90
22139;DHT22;25815;52.582;13.408;2024-02-26T05:07:03;1.40;99.90
22139;DHT22;25815;52.582;13.408;2024-02-26T05:09:29;1.40;99.90
22139;DHT22;25815;52.582;13.408;2024-02-26T05:11:54;1.40;99.90
22139;DHT22;25815;52.582;13.408;2024-02-26T05:14:20;1.40;99.90
22139;DHT22;25815;52.582;13.408;2024-02-26T05:16:45;1.40;99.90
22139;DHT22;25815;52.582;13.408;2024-02-26T05:19:11;1.40;99.90
22139;DHT22;25815;52.582;13.408;2024-02-26T05:21:36;1.40;99.90
22139;DHT22;25815;52.582;13.408;2024-02-26T05:24:02;1.50;99.90
22139;DHT22;25815;52.582;13.408;2024-02-26T05:26:28;1.40;99.90
22139;DHT22;25815;52.582;13.408;2024-02-26T05:28:53;1.50;99.90
22139;DHT22;25815;52.582;13.408;2024-02-26T05:31:25;1.40;99.90
22139;DHT22;25815;52.582;13.408;2024-02-26T05:33:50;1.40;99.90
22139;DHT22;25815;52.582;13.408;2024-02-26T05:36:20;1.40;99.90
22139;DHT22;25815;52.582;13.408;2024-02-26T05:38:47;1.40;99.90
22139;DHT22;25815;52.582;13.408;2024-02-26T05:41:15;1.40;99.90
22139;DHT22;25815;52.582;13.408;2024-02-26T05:43:42;1.40;99.90
22139;DHT22;25815;52.582;13.408;2024-02-26T05:46:07;1.30;99.90
22139;DHT22;25815;52.582;13.408;2024-02-26T05:48:33;1.30;99.90
22139;DHT22;25815;52.582;13.408;2024-02-26T05:50:59;1.30;99.90
22139;DHT22;25815;52.582;13.408;2024-02-26T05:53:25;1.30;99.90
22139;DHT22;25815;52.582;13.408;2024-02-26T05:55:50;1.30;99.90
22139;DHT22;25815;52.582;13.408;2024-02-26T05:58:16;1.20;99.90
22139;DHT22;25815;52.582;13.408;2024-02-26T06:00:41;1.30;99.90
22139;DHT22;25815;52.582;13.408;2024-02-26T06:03:07;1.30;99.90
22139;DHT22;25815;52.582;13.408;2024-02-26T06:05:33;1.20;99.90
22139;DHT22;25815;52.582;13.408;2024-02-26T06:07:58;1.20;99.90
22139;DHT22;25815;52.582;13.408;2024-02-26T06:10:24;1.20;99.90
22139;DHT22;25815;52.582;13.408;2024-02-26T06:12:49;1.20;99.90
22139;DHT22;25815;52.582;13.408;2024-02-26T06:15:15;1.20;99.90
22139;DHT22;25815;52.582;13.408;2024-02-26T06:17:41;1.20;99.90
22139;DHT22;25815;52.582;13.408;2024-02-26T06:20:07;1.20;99.90
22139;DHT22;25815;52.582;13.408;2024-02-26T06:22:37;1.20;99.90
22139;DHT22;25815;52.582;13.408;2024-02-26T06:25:02;1.20;99.90
22139;DHT22;25815;52.582;13.408;2024-02-26T06:27:28;1.20;99.90
22139;DHT22;25815;52.582;13.408;2024-02-26T06:29:54;1.30;99.90
22139;DHT22;25815;52.582;13.408;2024-02-26T06:32:19;1.30;99.90
22139;DHT22;25815;52.582;13.408;2024-02-26T06:34:45;1.40;99.90
22139;DHT22;25815;52.582;13.408;2024-02-26T06:37:10;1.40;99.90
22139;DHT22;25815;52.582;13.408;2024-02-26T06:39:36;1.50;99.90
22139;DHT22;25815;52.582;13.408;2024-02-26T06:42:02;1.50;99.90
22139;DHT22;25815;52.582;13.408;2024-02-26T06:44:28;1.70;99.90
22139;DHT22;25815;52.582;13.408;2024-02-26T06:46:59;1.70;99.90
22139;DHT22;25815;52.582;13.408;2024-02-26T06:49:26;1.80;99.90
22139;DHT22;25815;52.582;13.408;2024-02-26T06:51:51;1.90;99.90
22139;DHT22;25815;52.582;13.408;2024-02-26T06:54:17;2.00;99.90
22139;DHT22;25815;52.582;13.408;2024-02-26T06:56:43;2.00;99.90
22139;DHT22;25815;52.582;13.408;2024-02-26T06:59:09;2.10;99.90
22139;DHT22;25815;52.582;13.408;2024-02-26T07:01:34;2.10;99.90
22139;DHT22;25815;52.582;13.408;2024-02-26T07:04:00;2.20;99.90
22139;DHT22;25815;52.582;13.408;2024-02-26T07:06:26;2.20;99.90
22139;DHT22;25815;52.582;13.408;2024-02-26T07:08:52;2.50;99.90
22139;DHT22;25815;52.582;13.408;2024-02-26T07:11:18;2.40;99.90
22139;DHT22;25815;52.582;13.408;2024-02-26T07:13:45;2.40;99.90
22139;DHT22;25815;52.582;13.408;2024-02-26T07:16:11;2.50;99.90
22139;DHT22;25815;52.582;13.408;2024-02-26T07:18:37;2.60;99.90
22139;DHT22;25815;52.582;13.408;2024-02-26T07:21:03;2.70;99.90
22139;DHT22;25815;52.582;13.408;2024-02-26T07:23:29;2.80;99.90
22139;DHT22;25815;52.582;13.408;2024-02-26T07:25:55;2.80;99.90
22139;DHT22;25815;52.582;13.408;2024-02-26T07:28:20;3.00;99.90
22139;DHT22;25815;52.582;13.408;2024-02-26T07:30:46;3.10;99.90
22139;DHT22;25815;52.582;13.408;2024-02-26T07:33:12;3.20;99.90
22139;DHT22;25815;52.582;13.408;2024-02-26T07:35:38;3.30;99.90
22139;DHT22;25815;52.582;13.408;2024-02-26T07:38:04;3.40;99.90
22139;DHT22;25815;52.582;13.408;2024-02-26T07:40:30;3.50;99.90
22139;DHT22;25815;52.582;13.408;2024-02-26T07:42:56;3.50;99.90
22139;DHT22;25815;52.582;13.408;2024-02-26T07:45:22;3.60;99.90
22139;DHT22;25815;52.582;13.408;2024-02-26T07:47:47;3.60;99.90
22139;DHT22;25815;52.582;13.408;2024-02-26T07:50:13;3.70;99.90
22139;DHT22;25815;52.582;13.408;2024-02-26T07:52:39;3.80;99.90
22139;DHT22;25815;52.582;13.408;2024-02-26T07:55:05;3.80;99.90
22139;DHT22;25815;52.582;13.408;2024-02-26T07:57:32;4.00;99.90
22139;DHT22;25815;52.582;13.408;2024-02-26T07:59:59;4.00;99.90
22139;DHT22;25815;52.582;13.408;2024-02-26T08:02:25;4.10;99.90
22139;DHT22;25815;52.582;13.408;2024-02-26T08:04:50;4.20;99.90
22139;DHT22;25815;52.582;13.408;2024-02-26T08:07:16;4.30;99.90
22139;DHT22;25815;52.582;13.408;2024-02-26T08:09:42;4.40;99.90
22139;DHT22;25815;52.582;13.408;2024-02-26T08:12:07;4.60;99.90
22139;DHT22;25815;52.582;13.408;2024-02-26T08:14:33;4.50;99.90
22139;DHT22;25815;52.582;13.408;2024-02-26T08:16:59;4.60;99.90
22139;DHT22;25815;52.582;13.408;2024-02-26T08:19:25;4.70;99.90
22139;DHT22;25815;52.582;13.408;2024-02-26T08:21:50;4.70;99.90
22139;DHT22;25815;52.582;13.408;2024-02-26T08:24:16;4.80;99.90
22139;DHT22;25815;52.582;13.408;2024-02-26T08:26:42;4.90;99.90
22139;DHT22;25815;52.582;13.408;2024-02-26T08:29:07;4.90;99.90
22139;DHT22;25815;52.582;13.408;2024-02-26T08:31:33;4.90;99.90
22139;DHT22;25815;52.582;13.408;2024-02-26T08:34:01;5.00;99.90
22139;DHT22;25815;52.582;13.408;2024-02-26T08:36:28;5.10;99.90
22139;DHT22;25815;52.582;13.408;2024-02-26T08:38:53;5.10;99.90
22139;DHT22;25815;52.582;13.408;2024-02-26T08:41:19;5.20;99.90
22139;DHT22;25815;52.582;13.408;2024-02-26T08:43:44;5.20;99.90
22139;DHT22;25815;52.582;13.408;2024-02-26T08:46:12;5.30;99.90
22139;DHT22;25815;52.582;13.408;2024-02-26T08:48:39;5.40;99.90
22139;DHT22;25815;52.582;13.408;2024-02-26T08:51:06;5.50;99.90
22139;DHT22;25815;52.582;13.408;2024-02-26T08:53:32;5.60;99.90
22139;DHT22;25815;52.582;13.408;2024-02-26T08:55:57;5.70;99.90
22139;DHT22;25815;52.582;13.408;2024-02-26T08:58:23;5.80;99.90
22139;DHT22;25815;52.582;13.408;2024-02-26T09:00:48;5.90;99.90
22139;DHT22;25815;52.582;13.408;2024-02-26T09:03:14;5.90;99.90
22139;DHT22;25815;52.582;13.408;2024-02-26T09:05:39;6.10;99.90
22139;DHT22;25815;52.582;13.408;2024-02-26T09:08:05;6.20;99.90
22139;DHT22;25815;52.582;13.408;2024-02-26T09:10:31;6.20;99.90
22139;DHT22;25815;52.582;13.408;2024-02-26T09:12:58;6.40;99.90
22139;DHT22;25815;52.582;13.408;2024-02-26T09:15:24;6.50;99.90
22139;DHT22;25815;52.582;13.408;2024-02-26T09:17:49;6.60;99.90
22139;DHT22;25815;52.582;13.408;2024-02-26T09:20:16;6.80;99.90
22139;DHT22;25815;52.582;13.408;2024-02-26T09:22:48;6.80;99.90
22139;DHT22;25815;52.582;13.408;2024-02-26T09:25:14;6.90;99.90
22139;DHT22;25815;52.582;13.408;2024-02-26T09:27:41;7.00;99.90
22139;DHT22;25815;52.582;13.408;2024-02-26T09:30:09;7.10;99.90
22139;DHT22;25815;52.582;13.408;2024-02-26T09:32:35;7.30;99.90
22139;DHT22;25815;52.582;13.408;2024-02-26T09:35:01;7.40;99.90
22139;DHT22;25815;52.582;13.408;2024-02-26T09:37:27;7.50;99.90
22139;DHT22;25815;52.582;13.408;2024-02-26T09:39:52;7.50;99.90
22139;DHT22;25815;52.582;13.408;2024-02-26T09:42:18;7.60;99.90
22139;DHT22;25815;52.582;13.408;2024-02-26T09:44:45;7.60;99.90
22139;DHT22;25815;52.582;13.408;2024-02-26T09:47:12;7.60;99.90
22139;DHT22;25815;52.582;13.408;2024-02-26T09:49:42;7.70;99.90
22139;DHT22;25815;52.582;13.408;2024-02-26T09:52:08;7.70;99.90
22139;DHT22;25815;52.582;13.408;2024-02-26T09:54:37;7.70;99.90
22139;DHT22;25815;52.582;13.408;2024-02-26T09:57:03;7.70;99.90
22139;DHT22;25815;52.582;13.408;2024-02-26T09:59:38;7.70;99.90
22139;DHT22;25815;52.582;13.408;2024-02-26T10:02:07;7.80;99.90
22139;DHT22;25815;52.582;13.408;2024-02-26T10:04:34;7.70;99.90
22139;DHT22;25815;52.582;13.408;2024-02-26T10:07:00;7.90;99.90
22139;DHT22;25815;52.582;13.408;2024-02-26T10:09:28;8.00;99.90
22139;DHT22;25815;52.582;13.408;2024-02-26T10:11:54;8.00;99.90
22139;DHT22;25815;52.582;13.408;2024-02-26T10:14:20;8.10;99.90
22139;DHT22;25815;52.582;13.408;2024-02-26T10:16:46;8.20;99.90
22139;DHT22;25815;52.582;13.408;2024-02-26T10:19:25;8.40;99.90
22139;DHT22;25815;52.582;13.408;2024-02-26T10:21:55;8.40;99.90
22139;DHT22;25815;52.582;13.408;2024-02-26T10:24:21;8.60;99.90
22139;DHT22;25815;52.582;13.408;2024-02-26T10:26:47;8.70;99.90
22139;DHT22;25815;52.582;13.408;2024-02-26T10:29:12;8.90;99.90
22139;DHT22;25815;52.582;13.408;2024-02-26T10:31:42;9.10;99.90
22139;DHT22;25815;52.582;13.408;2024-02-26T10:34:07;9.40;99.90
22139;DHT22;25815;52.582;13.408;2024-02-26T10:36:34;9.60;99.90
22139;DHT22;25815;52.582;13.408;2024-02-26T10:39:05;9.80;99.90
22139;DHT22;25815;52.582;13.408;2024-02-26T10:41:30;10.10;99.90
22139;DHT22;25815;52.582;13.408;2024-02-26T10:43:58;10.30;99.90
22139;DHT22;25815;52.582;13.408;2024-02-26T10:46:23;10.50;99.90
22139;DHT22;25815;52.582;13.408;2024-02-26T10:48:51;10.80;99.90
22139;DHT22;25815;52.582;13.408;2024-02-26T10:51:20;11.10;99.90
22139;DHT22;25815;52.582;13.408;2024-02-26T10:53:48;11.40;99.90
22139;DHT22;25815;52.582;13.408;2024-02-26T10:56:16;11.50;99.90
22139;DHT22;25815;52.582;13.408;2024-02-26T10:58:44;11.60;99.90
22139;DHT22;25815;52.582;13.408;2024-02-26T11:01:11;11.60;99.90
22139;DHT22;25815;52.582;13.408;2024-02-26T11:03:38;11.70;99.90
22139;DHT22;25815;52.582;13.408;2024-02-26T11:06:04;11.70;99.90
22139;DHT22;25815;52.582;13.408;2024-02-26T11:08:31;11.70;99.90
22139;DHT22;25815;52.582;13.408;2024-02-26T11:10:57;11.70;99.90
22139;DHT22;25815;52.582;13.408;2024-02-26T11:13:27;11.80;99.90
22139;DHT22;25815;52.582;13.408;2024-02-26T11:15:56;11.90;99.90
22139;DHT22;25815;52.582;13.408;2024-02-26T11:18:23;11.90;99.90
22139;DHT22;25815;52.582;13.408;2024-02-26T11:20:49;11.90;99.90
22139;DHT22;25815;52.582;13.408;2024-02-26T11:23:16;12.10;99.90
22139;DHT22;25815;52.582;13.408;2024-02-26T11:25:41;12.10;99.90
22139;DHT22;25815;52.582;13.408;2024-02-26T11:28:13;12.30;99.90
22139;DHT22;25815;52.582;13.408;2024-02-26T11:30:44;12.40;99.90
22139;DHT22;25815;52.582;13.408;2024-02-26T11:33:10;12.50;99.90
22139;DHT22;25815;52.582;13.408;2024-02-26T11:35:38;12.50;99.90
22139;DHT22;25815;52.582;13.408;2024-02-26T11:38:04;12.70;99.90
22139;DHT22;25815;52.582;13.408;2024-02-26T11:40:32;12.70;99.90
22139;DHT22;25815;52.582;13.408;2024-02-26T11:42:58;12.60;99.90
22139;DHT22;25815;52.582;13.408;2024-02-26T11:51:00;12.50;99.90
22139;DHT22;25815;52.582;13.408;2024-02-26T11:53:27;12.50;99.90
22139;DHT22;25815;52.582;13.408;2024-02-26T11:58:59;12.60;99.90
22139;DHT22;25815;52.582;13.408;2024-02-26T12:01:44;12.60;99.90
22139;DHT22;25815;52.582;13.408;2024-02-26T12:04:22;12.70;99.90
22139;DHT22;25815;52.582;13.408;2024-02-26T12:06:52;12.80;99.90
22139;DHT22;25815;52.582;13.408;2024-02-26T12:09:35;12.80;99.90
22139;DHT22;25815;52.582;13.408;2024-02-26T12:12:02;12.90;99.90
22139;DHT22;25815;52.582;13.408;2024-02-26T12:14:28;12.90;99.90
22139;DHT22;25815;52.582;13.408;2024-02-26T12:16:55;13.10;99.90
22139;DHT22;25815;52.582;13.408;2024-02-26T12:19:22;13.10;99.90
22139;DHT22;25815;52.582;13.408;2024-02-26T12:21:52;13.10;99.90
22139;DHT22;25815;52.582;13.408;2024-02-26T12:24:18;13.20;99.90
22139;DHT22;25815;52.582;13.408;2024-02-26T12:26:45;13.20;99.90
22139;DHT22;25815;52.582;13.408;2024-02-26T12:29:10;13.10;99.90
22139;DHT22;25815;52.582;13.408;2024-02-26T12:31:37;13.20;99.90
22139;DHT22;25815;52.582;13.408;2024-02-26T12:34:03;13.20;99.90
22139;DHT22;25815;52.582;13.408;2024-02-26T12:36:29;13.30;99.90
22139;DHT22;25815;52.582;13.408;2024-02-26T12:38:55;13.40;99.90
22139;DHT22;25815;52.582;13.408;2024-02-26T12:41:22;13.60;99.90
22139;DHT22;25815;52.582;13.408;2024-02-26T12:43:48;13.70;99.90
22139;DHT22;25815;52.582;13.408;2024-02-26T12:46:14;13.90;99.90
22139;DHT22;25815;52.582;13.408;2024-02-26T12:48:43;14.00;99.90
22139;DHT22;25815;52.582;13.408;2024-02-26T12:51:09;14.20;99.90
22139;DHT22;25815;52.582;13.408;2024-02-26T12:53:35;14.30;99.90
22139;DHT22;25815;52.582;13.408;2024-02-26T12:56:02;14.40;99.90
22139;DHT22;25815;52.582;13.408;2024-02-26T12:58:29;14.50;99.90
22139;DHT22;25815;52.582;13.408;2024-02-26T13:00:56;14.60;99.90
22139;DHT22;25815;52.582;13.408;2024-02-26T13:03:23;14.60;99.90
22139;DHT22;25815;52.582;13.408;2024-02-26T13:05:49;14.50;99.90
22139;DHT22;25815;52.582;13.408;2024-02-26T13:08:18;14.20;99.90
22139;DHT22;25815;52.582;13.408;2024-02-26T13:10:46;14.20;99.90
22139;DHT22;25815;52.582;13.408;2024-02-26T13:13:14;14.10;99.90
22139;DHT22;25815;52.582;13.408;2024-02-26T13:15:40;14.00;99.90
22139;DHT22;25815;52.582;13.408;2024-02-26T13:18:10;13.90;99.90
22139;DHT22;25815;52.582;13.408;2024-02-26T13:20:36;13.90;99.90
22139;DHT22;25815;52.582;13.408;2024-02-26T13:23:10;13.80;99.90
22139;DHT22;25815;52.582;13.408;2024-02-26T13:25:36;13.80;99.90
22139;DHT22;25815;52.582;13.408;2024-02-26T13:28:16;13.70;99.90
22139;DHT22;25815;52.582;13.408;2024-02-26T13:30:56;13.80;99.90
22139;DHT22;25815;52.582;13.408;2024-02-26T13:33:23;13.70;99.90
22139;DHT22;25815;52.582;13.408;2024-02-26T13:35:49;13.70;99.90
22139;DHT22;25815;52.582;13.408;2024-02-26T13:38:15;13.50;99.90
22139;DHT22;25815;52.582;13.408;2024-02-26T13:40:40;13.50;99.90
22139;DHT22;25815;52.582;13.408;2024-02-26T13:43:06;13.40;99.90
22139;DHT22;25815;52.582;13.408;2024-02-26T13:45:36;13.30;99.90
22139;DHT22;25815;52.582;13.408;2024-02-26T13:48:03;13.10;99.90
22139;DHT22;25815;52.582;13.408;2024-02-26T13:50:29;13.00;99.90
22139;DHT22;25815;52.582;13.408;2024-02-26T13:52:55;13.00;99.90
22139;DHT22;25815;52.582;13.408;2024-02-26T13:55:22;12.90;99.90
22139;DHT22;25815;52.582;13.408;2024-02-26T13:57:49;12.80;99.90
22139;DHT22;25815;52.582;13.408;2024-02-26T14:00:17;12.70;99.90
22139;DHT22;25815;52.582;13.408;2024-02-26T14:02:43;12.70;99.90
22139;DHT22;25815;52.582;13.408;2024-02-26T14:05:09;12.60;99.90
22139;DHT22;25815;52.582;13.408;2024-02-26T14:07:34;12.60;99.90
22139;DHT22;25815;52.582;13.408;2024-02-26T14:10:00;12.50;99.90
22139;DHT22;25815;52.582;13.408;2024-02-26T14:12:25;12.50;99.90
22139;DHT22;25815;52.582;13.408;2024-02-26T14:14:51;12.40;99.90
22139;DHT22;25815;52.582;13.408;2024-02-26T14:17:19;12.40;99.90
22139;DHT22;25815;52.582;13.408;2024-02-26T14:19:45;12.30;99.90
22139;DHT22;25815;52.582;13.408;2024-02-26T14:22:13;12.30;99.90
22139;DHT22;25815;52.582;13.408;2024-02-26T14:24:39;12.20;99.90
22139;DHT22;25815;52.582;13.408;2024-02-26T14:27:12;12.20;99.90
22139;DHT22;25815;52.582;13.408;2024-02-26T14:29:42;12.20;99.90
22139;DHT22;25815;52.582;13.408;2024-02-26T14:32:09;12.20;99.90
22139;DHT22;25815;52.582;13.408;2024-02-26T14:34:35;12.20;99.90
22139;DHT22;25815;52.582;13.408;2024-02-26T14:37:00;12.10;99.90
22139;DHT22;25815;52.582;13.408;2024-02-26T14:39:26;12.10;99.90
22139;DHT22;25815;52.582;13.408;2024-02-26T14:41:52;12.10;99.90
22139;DHT22;25815;52.582;13.408;2024-02-26T14:44:17;12.00;99.90
22139;DHT22;25815;52.582;13.408;2024-02-26T14:46:43;12.00;99.90
22139;DHT22;25815;52.582;13.408;2024-02-26T14:49:08;11.90;99.90
22139;DHT22;25815;52.582;13.408;2024-02-26T14:51:34;11.90;99.90
22139;DHT22;25815;52.582;13.408;2024-02-26T14:54:00;11.80;99.90
22139;DHT22;25815;52.582;13.408;2024-02-26T14:56:27;11.80;99.90
22139;DHT22;25815;52.582;13.408;2024-02-26T14:58:53;11.70;99.90
22139;DHT22;25815;52.582;13.408;2024-02-26T15:01:18;11.70;99.90
22139;DHT22;25815;52.582;13.408;2024-02-26T15:03:44;11.60;99.90
22139;DHT22;25815;52.582;13.408;2024-02-26T15:06:09;11.60;99.90
22139;DHT22;25815;52.582;13.408;2024-02-26T15:08:35;11.60;99.90
22139;DHT22;25815;52.582;13.408;2024-02-26T15:11:01;11.60;99.90
22139;DHT22;25815;52.582;13.408;2024-02-26T15:13:26;11.50;99.90
22139;DHT22;25815;52.582;13.408;2024-02-26T15:15:52;11.50;99.90
22139;DHT22;25815;52.582;13.408;2024-02-26T15:18:18;11.40;99.90
22139;DHT22;25815;52.582;13.408;2024-02-26T15:20:44;11.40;99.90
22139;DHT22;25815;52.582;13.408;2024-02-26T15:23:11;11.30;99.90
22139;DHT22;25815;52.582;13.408;2024-02-26T15:25:37;11.30;99.90
22139;DHT22;25815;52.582;13.408;2024-02-26T15:28:03;11.30;99.90
22139;DHT22;25815;52.582;13.408;2024-02-26T15:30:29;11.30;99.90